createdAt,value
2023-05-20T00:00:28.104Z,0.50
2023-05-20T00:01:28.117Z,0.50
2023-05-20T00:02:28.162Z,0.50
2023-05-20T00:03:28.191Z,0.38
2023-05-20T00:04:28.200Z,0.34
2023-05-20T00:05:28.145Z,0.34
2023-05-20T00:06:28.176Z,0.34
2023-05-20T00:07:28.172Z,0.34
2023-05-20T00:08:28.197Z,0.35
2023-05-20T00:09:28.199Z,0.38
2023-05-20T00:10:28.211Z,0.43
2023-05-20T00:11:28.223Z,0.48
2023-05-20T00:12:28.238Z,0.50
2023-05-20T00:13:28.584Z,0.50
2023-05-20T00:14:28.260Z,0.50
2023-05-20T00:15:28.298Z,0.50
2023-05-20T00:16:28.345Z,0.50
2023-05-20T00:17:28.400Z,0.51
2023-05-20T00:18:28.346Z,0.50
2023-05-20T00:19:28.418Z,0.50
2023-05-20T00:20:28.348Z,0.50
2023-05-20T00:21:28.358Z,0.50
2023-05-20T00:22:28.381Z,0.51
2023-05-20T00:23:28.395Z,0.50
2023-05-20T00:24:28.424Z,0.50
2023-05-20T00:25:28.418Z,0.50
2023-05-20T00:26:28.439Z,0.50
2023-05-20T00:27:28.456Z,0.50
2023-05-20T00:28:28.483Z,0.50
2023-05-20T00:29:28.521Z,0.50
2023-05-20T00:30:28.527Z,0.50
2023-05-20T00:31:28.596Z,0.50
2023-05-20T00:32:28.657Z,0.50
2023-05-20T00:33:28.568Z,0.50
2023-05-20T00:34:28.589Z,0.50
2023-05-20T00:35:28.614Z,0.51
2023-05-20T00:36:28.639Z,0.51
2023-05-20T00:37:28.643Z,0.51
2023-05-20T00:38:28.662Z,0.51
2023-05-20T00:39:28.675Z,0.51
2023-05-20T00:40:28.693Z,0.50
2023-05-20T00:41:28.717Z,0.50
2023-05-20T00:42:28.809Z,0.50
2023-05-20T00:43:28.764Z,0.50
2023-05-20T00:44:28.787Z,0.51
2023-05-20T00:45:28.817Z,0.50
2023-05-20T00:46:28.919Z,0.51
2023-05-20T00:47:28.946Z,0.51
2023-05-20T00:48:28.833Z,0.51
2023-05-20T00:49:28.893Z,0.51
2023-05-20T00:50:28.881Z,0.51
2023-05-20T00:51:28.895Z,0.51
2023-05-20T00:52:28.917Z,0.50
2023-05-20T00:53:28.941Z,0.50
2023-05-20T00:54:28.984Z,0.51
2023-05-20T00:55:28.982Z,0.51
2023-05-20T00:56:28.997Z,0.51
2023-05-20T00:57:29.016Z,0.50
2023-05-20T00:58:29.025Z,0.50
2023-05-20T00:59:29.044Z,0.51
2023-05-20T01:00:29.069Z,0.50
2023-05-20T01:01:29.128Z,0.50
2023-05-20T01:02:29.135Z,0.50
2023-05-20T01:03:29.217Z,0.51
2023-05-20T01:04:29.136Z,0.51
2023-05-20T01:05:29.154Z,0.51
2023-05-20T01:06:29.164Z,0.51
2023-05-20T01:07:29.180Z,0.50
2023-05-20T01:08:29.206Z,0.51
2023-05-20T01:09:29.215Z,0.50
2023-05-20T01:10:29.231Z,0.50
2023-05-20T01:11:29.252Z,0.51
2023-05-20T01:12:29.269Z,0.51
2023-05-20T01:13:29.288Z,0.51
2023-05-20T01:14:29.306Z,0.51
2023-05-20T01:15:29.528Z,0.51
2023-05-20T01:16:29.403Z,0.51
2023-05-20T01:17:29.389Z,0.51
2023-05-20T01:18:29.380Z,0.51
2023-05-20T01:19:29.425Z,0.51
2023-05-20T01:20:29.415Z,0.51
2023-05-20T01:21:29.427Z,0.51
2023-05-20T01:22:29.458Z,0.51
2023-05-20T01:23:29.471Z,0.51
2023-05-20T01:24:29.480Z,0.50
2023-05-20T01:25:29.494Z,0.50
2023-05-20T01:26:29.505Z,0.50
2023-05-20T01:27:29.524Z,0.51
2023-05-20T01:28:29.535Z,0.51
2023-05-20T01:29:29.599Z,0.51
2023-05-20T01:30:29.617Z,0.51
2023-05-20T01:31:29.618Z,0.51
2023-05-20T01:32:29.619Z,0.51
2023-05-20T01:33:29.647Z,0.50
2023-05-20T01:34:29.636Z,0.51
2023-05-20T01:35:29.647Z,0.50
2023-05-20T01:36:29.669Z,0.52
2023-05-20T01:37:29.684Z,0.50
2023-05-20T01:38:29.707Z,0.50
2023-05-20T01:39:29.728Z,0.51
2023-05-20T01:40:29.761Z,0.51
2023-05-20T01:41:29.775Z,0.50
2023-05-20T01:42:29.783Z,0.51
2023-05-20T01:43:29.811Z,0.51
2023-05-20T01:44:29.827Z,0.51
2023-05-20T01:45:29.845Z,0.50
2023-05-20T01:46:29.980Z,0.51
2023-05-20T01:47:29.932Z,0.51
2023-05-20T01:48:29.912Z,0.51
2023-05-20T01:49:29.960Z,0.51
2023-05-20T01:50:29.968Z,0.52
2023-05-20T01:51:29.984Z,0.51
2023-05-20T01:52:30.013Z,0.51
2023-05-20T01:53:30.026Z,0.51
2023-05-20T01:54:30.047Z,0.51
2023-05-20T01:55:30.080Z,0.50
2023-05-20T01:56:30.095Z,0.50
2023-05-20T01:57:30.129Z,0.50
2023-05-20T01:58:30.130Z,0.50
2023-05-20T01:59:30.148Z,0.51
2023-05-20T02:00:30.201Z,0.51
2023-05-20T02:01:30.281Z,0.52
2023-05-20T02:02:30.350Z,0.50
2023-05-20T02:03:30.255Z,0.51
2023-05-20T02:04:30.244Z,0.50
2023-05-20T02:05:30.326Z,0.51
2023-05-20T02:06:30.290Z,0.50
2023-05-20T02:07:30.302Z,0.50
2023-05-20T02:08:30.328Z,0.51
2023-05-20T02:09:30.335Z,0.51
2023-05-20T02:10:30.356Z,0.52
2023-05-20T02:11:30.374Z,0.51
2023-05-20T02:12:30.411Z,0.51
2023-05-20T02:13:30.432Z,0.51
2023-05-20T02:14:30.438Z,0.51
2023-05-20T02:15:30.459Z,0.51
2023-05-20T02:16:30.522Z,0.51
2023-05-20T02:17:30.503Z,0.50
2023-05-20T02:18:30.527Z,0.50
2023-05-20T02:19:30.557Z,0.51
2023-05-20T02:20:30.563Z,0.51
2023-05-20T02:21:30.612Z,0.50
2023-05-20T02:22:30.607Z,0.51
2023-05-20T02:23:30.623Z,0.50
2023-05-20T02:24:30.647Z,0.51
2023-05-20T02:25:30.682Z,0.51
2023-05-20T02:26:30.695Z,0.51
2023-05-20T02:27:30.714Z,0.50
2023-05-20T02:28:30.742Z,0.50
2023-05-20T02:29:30.763Z,0.50
2023-05-20T02:30:30.812Z,0.50
2023-05-20T02:31:30.810Z,0.51
2023-05-20T02:32:30.834Z,0.52
2023-05-20T02:33:30.874Z,0.52
2023-05-20T02:34:30.962Z,0.51
2023-05-20T02:35:30.895Z,0.51
2023-05-20T02:36:30.910Z,0.51
2023-05-20T02:37:30.957Z,0.51
2023-05-20T02:38:30.957Z,0.51
2023-05-20T02:39:30.997Z,0.51
2023-05-20T02:40:31.000Z,0.51
2023-05-20T02:41:31.037Z,0.51
2023-05-20T02:42:31.052Z,0.51
2023-05-20T02:43:31.064Z,0.52
2023-05-20T02:44:31.081Z,0.52
2023-05-20T02:45:31.096Z,0.51
2023-05-20T02:46:31.241Z,0.52
2023-05-20T02:47:31.150Z,0.51
2023-05-20T02:48:31.160Z,0.50
2023-05-20T02:49:31.185Z,0.52
2023-05-20T02:50:31.200Z,0.51
2023-05-20T02:51:31.223Z,0.51
2023-05-20T02:52:31.262Z,0.50
2023-05-20T02:53:31.311Z,0.50
2023-05-20T02:54:31.288Z,0.51
2023-05-20T02:55:31.484Z,0.51
2023-05-20T02:56:31.939Z,0.51
2023-05-20T02:57:31.374Z,0.52
2023-05-20T02:58:31.382Z,0.51
2023-05-20T02:59:31.398Z,0.51
2023-05-20T03:00:31.424Z,0.51
2023-05-20T03:01:31.491Z,0.51
2023-05-20T03:02:31.508Z,0.50
2023-05-20T03:03:31.487Z,0.51
2023-05-20T03:04:31.552Z,0.50
2023-05-20T03:05:31.690Z,0.51
2023-05-20T03:06:31.549Z,0.51
2023-05-20T03:07:31.568Z,0.51
2023-05-20T03:08:31.593Z,0.51
2023-05-20T03:09:31.643Z,0.51
2023-05-20T03:10:31.632Z,0.51
2023-05-20T03:11:31.658Z,0.51
2023-05-20T03:12:31.691Z,0.51
2023-05-20T03:13:31.704Z,0.51
2023-05-20T03:14:31.733Z,0.51
2023-05-20T03:15:31.837Z,0.51
2023-05-20T03:16:31.814Z,0.51
2023-05-20T03:17:31.861Z,0.52
2023-05-20T03:18:31.824Z,0.51
2023-05-20T03:19:31.896Z,0.51
2023-05-20T03:20:31.876Z,0.51
2023-05-20T03:21:31.906Z,0.50
2023-05-20T03:22:31.936Z,0.51
2023-05-20T03:23:31.953Z,0.51
2023-05-20T03:24:31.978Z,0.51
2023-05-20T03:25:32.204Z,0.51
2023-05-20T03:26:32.031Z,0.51
2023-05-20T03:27:32.060Z,0.51
2023-05-20T03:28:32.081Z,0.51
2023-05-20T03:29:32.107Z,0.52
2023-05-20T03:30:32.135Z,0.52
2023-05-20T03:31:32.179Z,0.52
2023-05-20T03:32:32.226Z,0.52
2023-05-20T03:33:32.206Z,0.53
2023-05-20T03:34:32.225Z,0.53
2023-05-20T03:35:32.497Z,0.52
2023-05-20T03:36:32.256Z,0.52
2023-05-20T03:37:32.285Z,0.51
2023-05-20T03:38:32.305Z,0.51
2023-05-20T03:39:32.317Z,0.51
2023-05-20T03:40:32.343Z,0.51
2023-05-20T03:41:32.387Z,0.51
2023-05-20T03:42:32.385Z,0.51
2023-05-20T03:43:32.395Z,0.52
2023-05-20T03:44:32.408Z,0.51
2023-05-20T03:45:32.470Z,0.51
2023-05-20T03:46:32.524Z,0.51
2023-05-20T03:47:32.480Z,0.50
2023-05-20T03:48:32.483Z,0.51
2023-05-20T03:49:32.481Z,0.51
2023-05-20T03:50:32.513Z,0.50
2023-05-20T03:51:32.511Z,0.51
2023-05-20T03:52:32.534Z,0.51
2023-05-20T03:53:32.548Z,0.52
2023-05-20T03:54:32.545Z,0.51
2023-05-20T03:55:32.666Z,0.50
2023-05-20T03:56:32.567Z,0.50
2023-05-20T03:57:32.600Z,0.51
2023-05-20T03:58:32.586Z,0.51
2023-05-20T03:59:32.602Z,0.51
2023-05-20T04:00:32.604Z,0.51
2023-05-20T04:01:32.685Z,0.50
2023-05-20T04:02:32.734Z,0.50
2023-05-20T04:03:32.825Z,0.51
2023-05-20T04:04:32.639Z,0.50
2023-05-20T04:05:32.744Z,0.51
2023-05-20T04:06:32.642Z,0.50
2023-05-20T04:07:32.651Z,0.51
2023-05-20T04:08:32.655Z,0.50
2023-05-20T04:09:32.658Z,0.50
2023-05-20T04:10:32.658Z,0.51
2023-05-20T04:11:32.680Z,0.50
2023-05-20T04:12:32.667Z,0.50
2023-05-20T04:13:32.699Z,0.50
2023-05-20T04:14:33.839Z,0.51
2023-05-20T04:15:32.824Z,0.50
2023-05-20T04:16:32.724Z,0.51
2023-05-20T04:17:32.699Z,0.50
2023-05-20T04:18:32.742Z,0.50
2023-05-20T04:19:32.695Z,0.51
2023-05-20T04:20:32.684Z,0.51
2023-05-20T04:21:32.691Z,0.51
2023-05-20T04:22:32.686Z,0.51
2023-05-20T04:23:32.686Z,0.51
2023-05-20T04:24:32.686Z,0.50
2023-05-20T04:25:32.700Z,0.50
2023-05-20T04:26:32.710Z,0.51
2023-05-20T04:27:32.714Z,0.51
2023-05-20T04:28:32.710Z,0.51
2023-05-20T04:29:32.754Z,0.51
2023-05-20T04:30:32.717Z,0.51
2023-05-20T04:31:32.746Z,0.51
2023-05-20T04:32:32.734Z,0.51
2023-05-20T04:33:32.718Z,0.50
2023-05-20T04:34:32.737Z,0.51
2023-05-20T04:35:33.035Z,0.50
2023-05-20T04:36:32.763Z,0.50
2023-05-20T04:37:32.766Z,0.50
2023-05-20T04:38:32.807Z,0.51
2023-05-20T04:39:32.784Z,0.51
2023-05-20T04:40:32.795Z,0.50
2023-05-20T04:41:32.790Z,0.51
2023-05-20T04:42:32.786Z,0.50
2023-05-20T04:43:32.797Z,0.50
2023-05-20T04:44:32.811Z,0.51
2023-05-20T04:45:33.253Z,0.51
2023-05-20T04:46:32.868Z,0.51
2023-05-20T04:47:32.861Z,0.51
2023-05-20T04:48:32.852Z,0.51
2023-05-20T04:49:32.853Z,0.50
2023-05-20T04:50:32.848Z,0.51
2023-05-20T04:51:32.853Z,0.51
2023-05-20T04:52:32.853Z,0.50
2023-05-20T04:53:32.864Z,0.50
2023-05-20T04:54:32.839Z,0.50
2023-05-20T04:55:33.215Z,0.50
2023-05-20T04:56:32.822Z,0.50
2023-05-20T04:57:32.812Z,0.51
2023-05-20T04:58:32.843Z,0.51
2023-05-20T04:59:32.858Z,0.50
2023-05-20T05:00:32.846Z,0.51
2023-05-20T05:01:32.951Z,0.50
2023-05-20T05:02:32.870Z,0.51
2023-05-20T05:03:34.467Z,0.50
2023-05-20T05:04:32.879Z,0.50
2023-05-20T05:05:33.085Z,0.50
2023-05-20T05:06:32.864Z,0.51
2023-05-20T05:07:32.840Z,0.51
2023-05-20T05:08:32.831Z,0.51
2023-05-20T05:09:34.806Z,0.51
2023-05-20T05:10:32.805Z,0.51
2023-05-20T05:11:32.791Z,0.51
2023-05-20T05:12:32.773Z,0.51
2023-05-20T05:13:32.771Z,0.51
2023-05-20T05:14:32.761Z,0.51
2023-05-20T05:15:33.066Z,0.51
2023-05-20T05:16:32.889Z,0.52
2023-05-20T05:17:32.835Z,0.51
2023-05-20T05:18:32.752Z,0.52
2023-05-20T05:19:32.725Z,0.52
2023-05-20T05:20:32.718Z,0.52
2023-05-20T05:21:32.720Z,0.52
2023-05-20T05:22:32.725Z,0.52
2023-05-20T05:23:32.715Z,0.52
2023-05-20T05:24:32.714Z,0.52
2023-05-20T05:25:32.948Z,0.52
2023-05-20T05:26:32.697Z,0.51
2023-05-20T05:27:32.704Z,0.52
2023-05-20T05:28:32.689Z,0.52
2023-05-20T05:29:32.705Z,0.52
2023-05-20T05:30:32.682Z,0.53
2023-05-20T05:31:32.692Z,0.53
2023-05-20T05:32:32.759Z,0.53
2023-05-20T05:33:32.877Z,0.54
2023-05-20T05:34:32.667Z,0.53
2023-05-20T05:35:32.991Z,0.53
2023-05-20T05:36:32.659Z,0.53
2023-05-20T05:37:32.647Z,0.54
2023-05-20T05:38:32.647Z,0.54
2023-05-20T05:39:32.647Z,0.54
2023-05-20T05:40:32.652Z,0.55
2023-05-20T05:41:32.633Z,0.55
2023-05-20T05:42:32.624Z,0.55
2023-05-20T05:43:32.620Z,0.56
2023-05-20T05:44:32.631Z,0.55
2023-05-20T05:45:32.808Z,0.55
2023-05-20T05:46:32.633Z,0.56
2023-05-20T05:47:32.905Z,0.55
2023-05-20T05:48:32.583Z,0.55
2023-05-20T05:49:32.597Z,0.55
2023-05-20T05:50:32.563Z,0.55
2023-05-20T05:51:32.549Z,0.56
2023-05-20T05:52:33.336Z,0.55
2023-05-20T05:53:32.401Z,0.55
2023-05-20T05:54:32.521Z,0.55
2023-05-20T05:55:32.785Z,0.55
2023-05-20T05:56:32.502Z,0.55
2023-05-20T05:57:32.506Z,0.55
2023-05-20T05:58:32.496Z,0.55
2023-05-20T05:59:32.484Z,0.54
2023-05-20T06:00:32.476Z,0.54
2023-05-20T06:01:32.477Z,0.54
2023-05-20T06:02:32.547Z,0.54
2023-05-20T06:03:32.498Z,0.53
2023-05-20T06:04:32.497Z,0.53
2023-05-20T06:05:32.664Z,0.52
2023-05-20T06:06:32.433Z,0.51
2023-05-20T06:07:32.431Z,0.51
2023-05-20T06:08:32.419Z,0.51
2023-05-20T06:09:32.402Z,0.50
2023-05-20T06:10:32.389Z,0.51
2023-05-20T06:11:32.400Z,0.51
2023-05-20T06:12:32.382Z,0.50
2023-05-20T06:13:32.371Z,0.51
2023-05-20T06:14:32.361Z,0.50
2023-05-20T06:15:32.435Z,0.50
2023-05-20T06:16:32.438Z,0.50
2023-05-20T06:17:32.397Z,0.50
2023-05-20T06:18:32.335Z,0.51
2023-05-20T06:19:32.399Z,0.50
2023-05-20T06:20:32.342Z,0.50
2023-05-20T06:21:32.448Z,0.50
2023-05-20T06:22:32.320Z,0.51
2023-05-20T06:23:32.311Z,0.51
2023-05-20T06:24:32.300Z,0.50
2023-05-20T06:25:32.526Z,0.51
2023-05-20T06:26:32.288Z,0.50
2023-05-20T06:27:32.296Z,0.51
2023-05-20T06:28:32.285Z,0.50
2023-05-20T06:29:32.278Z,0.51
2023-05-20T06:30:32.276Z,0.50
2023-05-20T06:31:32.306Z,0.50
2023-05-20T06:32:32.271Z,0.50
2023-05-20T06:33:32.254Z,0.50
2023-05-20T06:34:32.261Z,0.50
2023-05-20T06:35:32.482Z,0.51
2023-05-20T06:36:33.747Z,0.50
2023-05-20T06:37:32.425Z,0.51
2023-05-20T06:38:32.336Z,0.50
2023-05-20T06:39:32.325Z,0.51
2023-05-20T06:40:32.321Z,0.50
2023-05-20T06:41:32.319Z,0.50
2023-05-20T06:42:32.332Z,0.50
2023-05-20T06:43:32.325Z,0.51
2023-05-20T06:44:32.337Z,0.51
2023-05-20T06:45:32.481Z,0.50
2023-05-20T06:46:32.380Z,0.50
2023-05-20T06:47:32.350Z,0.50
2023-05-20T06:48:32.365Z,0.51
2023-05-20T06:49:32.337Z,0.50
2023-05-20T06:50:32.329Z,0.50
2023-05-20T06:51:32.345Z,0.50
2023-05-20T06:52:32.324Z,0.50
2023-05-20T06:53:32.354Z,0.50
2023-05-20T06:54:32.326Z,0.51
2023-05-20T06:55:32.433Z,0.51
2023-05-20T06:56:32.316Z,0.51
2023-05-20T06:57:32.318Z,0.51
2023-05-20T06:58:32.319Z,0.51
2023-05-20T06:59:32.334Z,0.50
2023-05-20T07:00:32.316Z,0.50
2023-05-20T07:01:32.305Z,0.50
2023-05-20T07:02:32.342Z,0.51
2023-05-20T07:03:32.380Z,0.51
2023-05-20T07:04:32.295Z,0.51
2023-05-20T07:05:32.429Z,0.50
2023-05-20T07:06:32.296Z,0.51
2023-05-20T07:07:32.276Z,0.50
2023-05-20T07:08:32.272Z,0.51
2023-05-20T07:09:32.295Z,0.50
2023-05-20T07:10:32.283Z,0.50
2023-05-20T07:11:32.274Z,0.50
2023-05-20T07:12:32.838Z,0.50
2023-05-20T07:13:32.334Z,0.50
2023-05-20T07:14:32.318Z,0.50
2023-05-20T07:15:32.362Z,0.50
2023-05-20T07:16:32.485Z,0.50
2023-05-20T07:17:32.324Z,0.51
2023-05-20T07:18:32.304Z,0.50
2023-05-20T07:19:32.370Z,0.50
2023-05-20T07:20:32.297Z,0.50
2023-05-20T07:21:32.290Z,0.51
2023-05-20T07:22:32.288Z,0.51
2023-05-20T07:23:32.296Z,0.50
2023-05-20T07:24:32.294Z,0.51
2023-05-20T07:25:32.440Z,0.50
2023-05-20T07:26:32.317Z,0.50
2023-05-20T07:27:32.324Z,0.51
2023-05-20T07:28:32.338Z,0.50
2023-05-20T07:29:32.323Z,0.50
2023-05-20T07:30:32.328Z,0.50
2023-05-20T07:31:32.386Z,0.50
2023-05-20T07:32:32.366Z,0.50
2023-05-20T07:33:32.352Z,0.50
2023-05-20T07:34:32.361Z,0.51
2023-05-20T07:35:32.469Z,0.51
2023-05-20T07:36:32.390Z,0.51
2023-05-20T07:37:32.386Z,0.50
2023-05-20T07:38:32.382Z,0.50
2023-05-20T07:39:32.367Z,0.50
2023-05-20T07:40:32.478Z,0.51
2023-05-20T07:41:32.388Z,0.51
2023-05-20T07:42:32.350Z,0.50
2023-05-20T07:43:32.357Z,0.50
2023-05-20T07:44:32.340Z,0.50
2023-05-20T07:45:32.644Z,0.50
2023-05-20T07:46:32.332Z,0.51
2023-05-20T07:47:32.338Z,0.50
2023-05-20T07:48:32.308Z,0.50
2023-05-20T07:49:32.298Z,0.50
2023-05-20T07:50:32.304Z,0.50
2023-05-20T07:51:32.299Z,0.50
2023-05-20T07:52:44.067Z,0.50
2023-05-20T07:53:32.300Z,0.50
2023-05-20T07:54:32.292Z,0.50
2023-05-20T07:55:32.392Z,0.50
2023-05-20T07:56:32.276Z,0.48
2023-05-20T07:57:32.304Z,0.47
2023-05-20T07:58:32.266Z,0.50
2023-05-20T07:59:32.268Z,0.50
2023-05-20T08:00:32.261Z,0.50
2023-05-20T08:01:32.249Z,0.50
2023-05-20T08:02:32.315Z,0.50
2023-05-20T08:03:32.333Z,0.50
2023-05-20T08:04:32.297Z,0.50
2023-05-20T08:05:32.370Z,0.50
2023-05-20T08:06:32.208Z,0.50
2023-05-20T08:07:32.206Z,0.50
2023-05-20T08:08:32.200Z,0.50
2023-05-20T08:09:32.194Z,0.50
2023-05-20T08:10:32.188Z,0.50
2023-05-20T08:11:32.196Z,0.50
2023-05-20T08:12:32.179Z,0.50
2023-05-20T08:13:32.205Z,0.50
2023-05-20T08:14:32.164Z,0.51
2023-05-20T08:15:32.230Z,0.51
2023-05-20T08:16:32.190Z,0.50
2023-05-20T08:17:32.173Z,0.51
2023-05-20T08:18:32.156Z,0.50
2023-05-20T08:19:32.184Z,0.50
2023-05-20T08:20:32.133Z,0.50
2023-05-20T08:21:32.134Z,0.51
2023-05-20T08:22:32.123Z,0.51
2023-05-20T08:23:35.476Z,0.50
2023-05-20T08:24:32.115Z,0.50
2023-05-20T08:25:32.195Z,0.50
2023-05-20T08:26:32.092Z,0.50
2023-05-20T08:27:32.082Z,0.50
2023-05-20T08:28:32.079Z,0.49
2023-05-20T08:29:32.151Z,0.50
2023-05-20T08:30:32.072Z,0.50
2023-05-20T08:31:32.134Z,0.50
2023-05-20T08:32:32.110Z,0.50
2023-05-20T08:33:32.085Z,0.50
2023-05-20T08:34:32.053Z,0.51
2023-05-20T08:35:32.212Z,0.50
2023-05-20T08:36:32.042Z,0.50
2023-05-20T08:37:32.035Z,0.50
2023-05-20T08:38:32.047Z,0.51
2023-05-20T08:39:32.033Z,0.51
2023-05-20T08:40:32.026Z,0.51
2023-05-20T08:41:32.029Z,0.51
2023-05-20T08:42:32.082Z,0.50
2023-05-20T08:43:32.007Z,0.51
2023-05-20T08:44:32.009Z,0.50
2023-05-20T08:45:32.091Z,0.50
2023-05-20T08:46:32.022Z,0.50
2023-05-20T08:47:32.005Z,0.51
2023-05-20T08:48:32.004Z,0.50
2023-05-20T08:49:32.005Z,0.51
2023-05-20T08:50:31.994Z,0.51
2023-05-20T08:51:31.978Z,0.51
2023-05-20T08:52:31.966Z,0.51
2023-05-20T08:53:31.965Z,0.51
2023-05-20T08:54:31.952Z,0.51
2023-05-20T08:55:32.055Z,0.51
2023-05-20T08:56:31.932Z,0.51
2023-05-20T08:57:31.931Z,0.51
2023-05-20T08:58:31.927Z,0.51
2023-05-20T08:59:31.906Z,0.50
2023-05-20T09:00:31.936Z,0.50
2023-05-20T09:01:31.961Z,0.50
2023-05-20T09:02:31.929Z,0.50
2023-05-20T09:03:31.952Z,0.50
2023-05-20T09:04:32.059Z,0.50
2023-05-20T09:05:32.358Z,0.51
2023-05-20T09:06:32.139Z,0.51
2023-05-20T09:07:32.204Z,0.51
2023-05-20T09:08:32.268Z,0.53
2023-05-20T09:09:32.335Z,0.53
2023-05-20T09:10:32.420Z,0.55
2023-05-20T09:11:32.453Z,0.55
2023-05-20T09:12:32.528Z,0.55
2023-05-20T09:13:32.656Z,0.56
2023-05-20T09:14:32.644Z,0.58
2023-05-20T09:15:32.946Z,0.60
2023-05-20T09:16:32.797Z,0.61
2023-05-20T09:17:32.856Z,0.63
2023-05-20T09:18:32.860Z,0.60
2023-05-20T09:19:32.996Z,0.61
2023-05-20T09:20:32.958Z,0.62
2023-05-20T09:21:33.015Z,0.63
2023-05-20T09:22:33.063Z,0.63
2023-05-20T09:23:33.115Z,0.61
2023-05-20T09:24:33.173Z,0.64
2023-05-20T09:25:33.434Z,0.67
2023-05-20T09:26:33.255Z,0.68
2023-05-20T09:27:33.302Z,0.70
2023-05-20T09:28:33.356Z,0.66
2023-05-20T09:29:33.409Z,0.62
2023-05-20T09:30:33.457Z,0.60
2023-05-20T09:31:33.519Z,0.61
2023-05-20T09:32:33.610Z,0.59
2023-05-20T09:33:33.637Z,0.57
2023-05-20T09:34:33.654Z,0.54
2023-05-20T09:35:33.873Z,0.55
2023-05-20T09:36:33.764Z,0.52
2023-05-20T09:37:33.813Z,0.52
2023-05-20T09:38:33.869Z,0.54
2023-05-20T09:39:33.915Z,0.52
2023-05-20T09:40:33.976Z,0.50
2023-05-20T09:41:34.046Z,0.50
2023-05-20T09:42:34.060Z,0.50
2023-05-20T09:43:34.119Z,0.50
2023-05-20T09:44:34.169Z,0.50
2023-05-20T09:45:34.465Z,0.50
2023-05-20T09:46:34.305Z,0.50
2023-05-20T09:47:34.336Z,0.51
2023-05-20T09:48:34.476Z,0.53
2023-05-20T09:49:34.439Z,0.54
2023-05-20T09:50:34.469Z,0.55
2023-05-20T09:51:34.527Z,0.53
2023-05-20T09:52:34.597Z,0.53
2023-05-20T09:53:34.630Z,0.51
2023-05-20T09:54:34.675Z,0.50
2023-05-20T09:55:34.936Z,0.50
2023-05-20T09:56:34.788Z,0.51
2023-05-20T09:57:34.866Z,0.51
2023-05-20T09:58:34.897Z,0.50
2023-05-20T09:59:34.947Z,0.50
2023-05-20T10:00:35.027Z,0.50
2023-05-20T10:01:35.094Z,0.50
2023-05-20T10:02:35.174Z,0.56
2023-05-20T10:03:35.318Z,0.54
2023-05-20T10:04:35.226Z,0.51
2023-05-20T10:05:35.590Z,0.50
2023-05-20T10:06:35.317Z,0.50
2023-05-20T10:07:42.282Z,0.54
2023-05-20T10:08:35.398Z,0.54
2023-05-20T10:09:35.352Z,0.54
2023-05-20T10:10:35.337Z,0.53
2023-05-20T10:11:35.326Z,0.51
2023-05-20T10:12:35.339Z,0.48
2023-05-20T10:13:35.318Z,0.50
2023-05-20T10:14:35.315Z,0.53
2023-05-20T10:15:35.599Z,0.56
2023-05-20T10:16:35.301Z,0.54
2023-05-20T10:17:35.329Z,0.54
2023-05-20T10:18:35.305Z,0.52
2023-05-20T10:19:35.353Z,0.51
2023-05-20T10:20:35.290Z,0.53
2023-05-20T10:21:35.316Z,0.51
2023-05-20T10:22:35.276Z,0.50
2023-05-20T10:23:35.297Z,0.53
2023-05-20T10:24:35.274Z,0.54
2023-05-20T10:25:35.467Z,0.51
2023-05-20T10:26:35.250Z,0.52
2023-05-20T10:27:35.246Z,0.54
2023-05-20T10:28:35.235Z,0.55
2023-05-20T10:29:35.230Z,0.52
2023-05-20T10:30:35.525Z,0.51
2023-05-20T10:31:35.207Z,0.50
2023-05-20T10:32:35.241Z,0.50
2023-05-20T10:33:35.298Z,0.52
2023-05-20T10:34:35.318Z,0.50
2023-05-20T10:35:35.376Z,0.52
2023-05-20T10:36:35.435Z,0.53
2023-05-20T10:37:35.506Z,0.54
2023-05-20T10:38:35.524Z,0.53
2023-05-20T10:39:35.578Z,0.55
2023-05-20T10:40:35.940Z,0.55
2023-05-20T10:41:35.662Z,0.56
2023-05-20T10:42:35.712Z,0.58
2023-05-20T10:43:35.744Z,0.56
2023-05-20T10:44:35.798Z,0.56
2023-05-20T10:45:35.835Z,0.58
2023-05-20T10:46:53.902Z,0.55
2023-05-20T10:47:36.039Z,0.55
2023-05-20T10:48:36.000Z,0.56
2023-05-20T10:49:35.858Z,0.56
2023-05-20T10:50:36.038Z,0.57
2023-05-20T10:51:35.814Z,0.61
2023-05-20T10:52:35.807Z,0.62
2023-05-20T10:53:35.827Z,0.63
2023-05-20T10:54:35.780Z,0.64
2023-05-20T10:55:35.804Z,0.69
2023-05-20T10:56:35.770Z,0.68
2023-05-20T10:57:35.778Z,0.70
2023-05-20T10:58:35.735Z,0.70
2023-05-20T10:59:35.711Z,0.72
2023-05-20T11:00:36.010Z,0.74
2023-05-20T11:01:35.781Z,0.74
2023-05-20T11:02:35.804Z,0.74
2023-05-20T11:03:35.847Z,0.75
2023-05-20T11:04:35.660Z,0.77
2023-05-20T11:05:35.633Z,0.78
2023-05-20T11:06:35.620Z,0.79
2023-05-20T11:07:35.607Z,0.78
2023-05-20T11:08:35.597Z,0.78
2023-05-20T11:09:35.694Z,0.78
2023-05-20T11:10:35.895Z,0.80
2023-05-20T11:11:35.739Z,0.82
2023-05-20T11:12:35.829Z,0.80
2023-05-20T11:13:35.827Z,0.80
2023-05-20T11:14:35.872Z,0.77
2023-05-20T11:15:35.916Z,0.78
2023-05-20T11:16:36.031Z,0.79
2023-05-20T11:17:36.076Z,0.81
2023-05-20T11:18:36.046Z,0.81
2023-05-20T11:19:36.142Z,0.80
2023-05-20T11:20:36.252Z,0.85
2023-05-20T11:21:36.187Z,0.85
2023-05-20T11:22:36.252Z,0.84
2023-05-20T11:23:37.219Z,0.84
2023-05-20T11:24:36.270Z,0.88
2023-05-20T11:25:36.325Z,0.86
2023-05-20T11:26:36.256Z,0.88
2023-05-20T11:27:36.229Z,0.91
2023-05-20T11:28:36.231Z,0.93
2023-05-20T11:29:36.198Z,0.84
2023-05-20T11:30:36.606Z,0.91
2023-05-20T11:31:36.194Z,0.89
2023-05-20T11:32:36.189Z,0.91
2023-05-20T11:33:36.145Z,0.90
2023-05-20T11:34:36.137Z,0.92
2023-05-20T11:35:36.126Z,0.89
2023-05-20T11:36:36.110Z,0.87
2023-05-20T11:37:36.097Z,0.86
2023-05-20T11:38:36.088Z,0.83
2023-05-20T11:39:36.075Z,0.85
2023-05-20T11:40:49.192Z,0.87
2023-05-20T11:41:36.163Z,0.87
2023-05-20T11:42:36.035Z,0.87
2023-05-20T11:43:36.023Z,0.87
2023-05-20T11:44:36.011Z,0.81
2023-05-20T11:45:35.996Z,0.77
2023-05-20T11:46:36.044Z,0.80
2023-05-20T11:47:36.020Z,0.86
2023-05-20T11:48:35.955Z,0.83
2023-05-20T11:49:35.982Z,0.81
2023-05-20T11:50:36.145Z,0.83
2023-05-20T11:51:35.918Z,0.80
2023-05-20T11:52:35.907Z,0.81
2023-05-20T11:53:35.898Z,0.81
2023-05-20T11:54:35.893Z,0.76
2023-05-20T11:55:35.886Z,0.80
2023-05-20T11:56:35.876Z,0.82
2023-05-20T11:57:35.895Z,0.83
2023-05-20T11:58:35.852Z,0.82
2023-05-20T11:59:35.857Z,0.81
2023-05-20T12:01:34.823Z,0.85
2023-05-20T12:02:35.921Z,0.79
2023-05-20T12:03:35.959Z,0.79
2023-05-20T12:04:35.820Z,0.78
2023-05-20T12:05:35.781Z,0.75
2023-05-20T12:06:35.770Z,0.74
2023-05-20T12:07:35.811Z,0.78
2023-05-20T12:08:35.849Z,0.74
2023-05-20T12:09:35.912Z,0.73
2023-05-20T12:10:36.146Z,0.73
2023-05-20T12:11:35.983Z,0.71
2023-05-20T12:12:36.020Z,0.69
2023-05-20T12:13:36.084Z,0.69
2023-05-20T12:14:36.105Z,0.72
2023-05-20T12:15:36.140Z,0.76
2023-05-20T12:16:36.381Z,0.73
2023-05-20T12:17:36.247Z,0.71
2023-05-20T12:18:36.280Z,0.72
2023-05-20T12:19:37.766Z,0.74
2023-05-20T12:20:36.676Z,0.76
2023-05-20T12:21:36.275Z,0.75
2023-05-20T12:22:36.268Z,0.75
2023-05-20T12:23:36.248Z,0.76
2023-05-20T12:24:36.236Z,0.78
2023-05-20T12:25:36.227Z,0.76
2023-05-20T12:26:36.204Z,0.73
2023-05-20T12:27:36.194Z,0.70
2023-05-20T12:28:36.186Z,0.74
2023-05-20T12:29:36.192Z,0.77
2023-05-20T12:30:36.464Z,0.79
2023-05-20T12:31:36.234Z,0.79
2023-05-20T12:32:36.173Z,0.80
2023-05-20T12:33:36.123Z,0.76
2023-05-20T12:34:36.139Z,0.79
2023-05-20T12:35:36.104Z,0.76
2023-05-20T12:36:36.147Z,0.77
2023-05-20T12:37:36.801Z,0.74
2023-05-20T12:38:36.220Z,0.70
2023-05-20T12:39:36.270Z,0.72
2023-05-20T12:40:36.735Z,0.75
2023-05-20T12:41:36.334Z,0.75
2023-05-20T12:42:36.375Z,0.74
2023-05-20T12:43:37.264Z,0.75
2023-05-20T12:44:36.469Z,0.73
2023-05-20T12:45:36.539Z,0.69
2023-05-20T12:46:36.618Z,0.73
2023-05-20T12:47:36.603Z,0.72
2023-05-20T12:48:36.633Z,0.72
2023-05-20T12:49:36.677Z,0.69
2023-05-20T12:50:36.934Z,0.70
2023-05-20T12:51:36.760Z,0.71
2023-05-20T12:52:36.818Z,0.70
2023-05-20T12:53:36.851Z,0.72
2023-05-20T12:54:36.906Z,0.74
2023-05-20T12:55:36.933Z,0.71
2023-05-20T12:56:36.971Z,0.71
2023-05-20T12:57:37.022Z,0.72
2023-05-20T12:58:37.057Z,0.72
2023-05-20T12:59:37.099Z,0.73
2023-05-20T13:00:37.230Z,0.73
2023-05-20T13:01:37.235Z,0.74
2023-05-20T13:02:39.646Z,0.70
2023-05-20T13:03:37.227Z,0.71
2023-05-20T13:04:37.190Z,0.74
2023-05-20T13:05:37.186Z,0.71
2023-05-20T13:06:37.176Z,0.70
2023-05-20T13:07:37.164Z,0.68
2023-05-20T13:08:37.176Z,0.72
2023-05-20T13:09:37.145Z,0.68
2023-05-20T13:10:37.574Z,0.66
2023-05-20T13:11:37.124Z,0.64
2023-05-20T13:12:37.116Z,0.61
2023-05-20T13:13:37.113Z,0.62
2023-05-20T13:14:37.105Z,0.62
2023-05-20T13:15:37.084Z,0.65
2023-05-20T13:16:37.116Z,0.62
2023-05-20T13:17:37.119Z,0.58
2023-05-20T13:18:37.058Z,0.58
2023-05-20T13:19:37.053Z,0.59